Faribault, MN (55021)

8:32 PM CDT on August 21, 2014 (GMT -0500)
Faribault Municipal | Change Station
CLOSE
Current Station
Airport
Location: Faribault,
Elevation: 1060 ft
Nearby Weather Stations

Elev 1060 ft 44.33 °N, 93.31 °W | Updated 18 minutes ago

Mostly Cloudy
Mostly Cloudy
82 °F
Feels Like 87 °F
N
5
Wind Variable Wind from South

Today
High -- | Low -- °F
--% Chance of Precip.
Yesterday
High -- | Low -- °F
Precip. -- in
6:23 AM 8:08 PM
Waning Crescent, 11% visible
Pressure 29.83 in
Visibility 10.0 miles
Clouds Mostly Cloudy 4400 ft
Heat Index 87 °F
Dew Point 72 °F
Humidity 70%
Rainfall 1.79 in
Snow Depth Not available.
UV 0 out of 12
Pollen 3.30 out of 12
Ozone Good
PM2.5 Good
Flu Activity Not available.
METAR KFBL 220114Z AUTO 17004KT 10SM BKN044 28/22 A2983 RMK AO2 LTG DSNT SW

More Conditions Fewer Conditions

Pressure 29.83 in
Visibility 10.0 miles
Clouds Mostly Cloudy 4400 ft
Heat Index 87 °F
Dew Point 72 °F
Humidity 70%
Rainfall 1.79 in
Snow Depth Not available.
UV 0 out of 12
Pollen 3.30 out of 12
Ozone Good
PM2.5 Good
Flu Activity Not available.
METAR KFBL 220114Z AUTO 17004KT 10SM BKN044 28/22 A2983 RMK AO2 LTG DSNT SW

More Conditions Fewer Conditions

10-Day Weather Forecast

Almanac

Astronomy

Aug. 21, 2014 Rise Set
Actual Time 6:23 AM CDT 8:08 PM CDT
Civil Twilight 5:52 AM CDT 8:39 PM CDT
Nautical Twilight 5:14 AM CDT 9:16 PM CDT
Astronomical Twilight 4:34 AM CDT 9:56 PM CDT
Moon 2:50 AM CDT (8/21) 5:40 PM CDT (8/21)
Length of Visible Light 14h 46m
Length of Day
13h 44m
Tomorrow will be 2m 50s shorter.
Waning Crescent, 11% of the Moon is Illuminated
Today
Waning Crescent
Aug 25
New
Sep 2
First Quarter
Sep 8
Full
Sep 15
Last Quarter

Today's Extremes

State Highs State Lows

Community

WunderPhotos

Upload Photos

1,746,102 photos uploaded!

Nearby

Air Quality

  Air Quality AQ Index Pollutant
Yesterday Good
OZONE
Yesterday Good
PM2.5
Current Good
PM2.5
Current Good
OZONE
Thursday Good
OZONE
Thursday Good
PM2.5
Friday Moderate
OZONE
Friday Good
PM2.5
Saturday Good
OZONE
Saturday Good
PM2.5
Sunday Good
OZONE
Sunday Good
PM2.5
Monday Good
OZONE
Monday Good
PM2.5
Tuesday Good
OZONE
Tuesday Good
PM2.5

Snow Depth

Station Depth Elevation
No new snow has been reported.

Earthquake Activity

City Distance Mag. Time & Date
No recent earthquake activity has been reported nearby.
Minimum magnitude displayed is 2.5.

Coastal Water Temperatures

Place Temperature
No Stations Reporting

Nearby Weather Stations